sensor_id;sensor_type;location;lat;lon;timestamp;pressure;altitude;pressure_sealevel;temperature;humidity
44351;BME280;62766;62.622;17.912;2023-06-19T00:00:16;101522.59;;;16.82;56.63
44351;BME280;62766;62.622;17.912;2023-06-19T00:02:45;101522.04;;;16.99;56.45
44351;BME280;62766;62.622;17.912;2023-06-19T00:05:13;101515.45;;;16.80;56.83
44351;BME280;62766;62.622;17.912;2023-06-19T00:07:43;101513.48;;;16.73;55.93
44351;BME280;62766;62.622;17.912;2023-06-19T00:10:11;101514.20;;;16.63;55.64
44351;BME280;62766;62.622;17.912;2023-06-19T00:12:40;101522.00;;;16.82;56.13
44351;BME280;62766;62.622;17.912;2023-06-19T00:15:10;101524.43;;;16.90;56.05
44351;BME280;62766;62.622;17.912;2023-06-19T00:17:38;101523.48;;;16.87;56.84
44351;BME280;62766;62.622;17.912;2023-06-19T00:20:07;101524.58;;;16.71;57.63
44351;BME280;62766;62.622;17.912;2023-06-19T00:22:36;101526.33;;;16.60;57.91
44351;BME280;62766;62.622;17.912;2023-06-19T00:25:04;101530.86;;;16.43;57.81
44351;BME280;62766;62.622;17.912;2023-06-19T00:27:33;101532.49;;;16.41;58.67
44351;BME280;62766;62.622;17.912;2023-06-19T00:30:02;101532.83;;;16.26;58.33
44351;BME280;62766;62.622;17.912;2023-06-19T00:32:31;101528.69;;;16.29;57.89
44351;BME280;62766;62.622;17.912;2023-06-19T00:34:59;101534.41;;;16.27;57.50
44351;BME280;62766;62.622;17.912;2023-06-19T00:37:27;101534.80;;;16.22;57.52
44351;BME280;62766;62.622;17.912;2023-06-19T00:39:57;101535.02;;;16.37;57.57
44351;BME280;62766;62.622;17.912;2023-06-19T00:42:25;101534.02;;;16.35;57.17
44351;BME280;62766;62.622;17.912;2023-06-19T00:44:54;101533.18;;;16.35;57.88
44351;BME280;62766;62.622;17.912;2023-06-19T00:47:22;101534.30;;;16.34;58.41
44351;BME280;62766;62.622;17.912;2023-06-19T00:49:51;101532.88;;;16.33;58.32
44351;BME280;62766;62.622;17.912;2023-06-19T00:52:19;101533.61;;;16.49;58.01
44351;BME280;62766;62.622;17.912;2023-06-19T00:54:47;101533.46;;;16.53;57.59
44351;BME280;62766;62.622;17.912;2023-06-19T00:57:16;101533.24;;;16.58;56.48
44351;BME280;62766;62.622;17.912;2023-06-19T00:59:44;101530.20;;;16.59;56.63
44351;BME280;62766;62.622;17.912;2023-06-19T01:02:13;101526.67;;;16.62;56.76
44351;BME280;62766;62.622;17.912;2023-06-19T01:04:42;101528.46;;;16.64;56.00
44351;BME280;62766;62.622;17.912;2023-06-19T01:07:12;101534.64;;;16.53;55.88
44351;BME280;62766;62.622;17.912;2023-06-19T01:09:48;101542.60;;;16.51;56.46
44351;BME280;62766;62.622;17.912;2023-06-19T01:12:22;101539.65;;;16.54;57.17
44351;BME280;62766;62.622;17.912;2023-06-19T01:14:57;101534.74;;;16.21;56.75
44351;BME280;62766;62.622;17.912;2023-06-19T01:17:27;101535.10;;;16.17;56.80
44351;BME280;62766;62.622;17.912;2023-06-19T01:19:57;101535.39;;;16.12;57.21
44351;BME280;62766;62.622;17.912;2023-06-19T01:22:27;101530.46;;;16.12;58.02
44351;BME280;62766;62.622;17.912;2023-06-19T01:24:56;101534.07;;;16.28;58.43
44351;BME280;62766;62.622;17.912;2023-06-19T01:27:25;101534.78;;;16.19;57.75
44351;BME280;62766;62.622;17.912;2023-06-19T01:29:54;101537.16;;;16.30;57.51
44351;BME280;62766;62.622;17.912;2023-06-19T01:32:30;101535.31;;;16.28;57.54
44351;BME280;62766;62.622;17.912;2023-06-19T01:35:04;101534.58;;;16.20;57.24
44351;BME280;62766;62.622;17.912;2023-06-19T01:37:36;101533.63;;;16.37;57.52
44351;BME280;62766;62.622;17.912;2023-06-19T01:40:08;101528.35;;;16.29;57.33
44351;BME280;62766;62.622;17.912;2023-06-19T01:42:38;101528.53;;;16.14;57.13
44351;BME280;62766;62.622;17.912;2023-06-19T01:45:08;101535.44;;;16.24;56.91
44351;BME280;62766;62.622;17.912;2023-06-19T01:47:38;101533.24;;;16.39;57.13
44351;BME280;62766;62.622;17.912;2023-06-19T01:50:08;101535.15;;;16.31;57.21
44351;BME280;62766;62.622;17.912;2023-06-19T01:52:38;101532.65;;;16.23;57.79
44351;BME280;62766;62.622;17.912;2023-06-19T01:55:08;101529.78;;;16.19;58.33
44351;BME280;62766;62.622;17.912;2023-06-19T01:57:36;101533.24;;;16.24;59.18
44351;BME280;62766;62.622;17.912;2023-06-19T02:00:06;101532.30;;;16.23;59.07
44351;BME280;62766;62.622;17.912;2023-06-19T02:02:35;101530.75;;;16.25;59.30
44351;BME280;62766;62.622;17.912;2023-06-19T02:05:04;101528.86;;;16.08;59.66
44351;BME280;62766;62.622;17.912;2023-06-19T02:07:33;101525.38;;;15.96;60.16
44351;BME280;62766;62.622;17.912;2023-06-19T02:10:02;101529.33;;;15.97;60.26
44351;BME280;62766;62.622;17.912;2023-06-19T02:12:31;101532.71;;;15.96;60.19
44351;BME280;62766;62.622;17.912;2023-06-19T02:15:00;101528.71;;;15.83;60.26
44351;BME280;62766;62.622;17.912;2023-06-19T02:17:30;101527.86;;;15.92;60.36
44351;BME280;62766;62.622;17.912;2023-06-19T02:19:59;101529.91;;;15.85;60.24
44351;BME280;62766;62.622;17.912;2023-06-19T02:22:27;101527.46;;;16.10;60.26
44351;BME280;62766;62.622;17.912;2023-06-19T02:24:56;101526.25;;;15.93;60.57
44351;BME280;62766;62.622;17.912;2023-06-19T02:27:25;101528.26;;;16.03;60.32
44351;BME280;62766;62.622;17.912;2023-06-19T02:29:53;101526.38;;;16.13;60.86
44351;BME280;62766;62.622;17.912;2023-06-19T02:32:22;101523.30;;;16.20;61.22
44351;BME280;62766;62.622;17.912;2023-06-19T02:34:52;101519.90;;;16.06;61.37
44351;BME280;62766;62.622;17.912;2023-06-19T02:37:20;101520.21;;;16.16;61.12
44351;BME280;62766;62.622;17.912;2023-06-19T02:39:48;101522.63;;;16.29;60.87
44351;BME280;62766;62.622;17.912;2023-06-19T02:42:16;101523.01;;;16.34;60.77
44351;BME280;62766;62.622;17.912;2023-06-19T02:44:44;101519.06;;;16.43;60.66
44351;BME280;62766;62.622;17.912;2023-06-19T02:47:14;101516.79;;;16.34;60.77
44351;BME280;62766;62.622;17.912;2023-06-19T02:49:42;101516.90;;;16.33;60.24
44351;BME280;62766;62.622;17.912;2023-06-19T02:52:11;101514.57;;;16.42;60.16
44351;BME280;62766;62.622;17.912;2023-06-19T02:54:39;101513.63;;;16.56;60.15
44351;BME280;62766;62.622;17.912;2023-06-19T02:57:08;101512.33;;;16.58;59.77
44351;BME280;62766;62.622;17.912;2023-06-19T02:59:36;101509.77;;;16.62;59.58
44351;BME280;62766;62.622;17.912;2023-06-19T03:02:05;101511.97;;;16.72;59.14
44351;BME280;62766;62.622;17.912;2023-06-19T03:04:34;101511.31;;;16.80;59.20
44351;BME280;62766;62.622;17.912;2023-06-19T03:07:03;101509.02;;;16.88;58.89
44351;BME280;62766;62.622;17.912;2023-06-19T03:09:31;101505.84;;;17.01;58.93
44351;BME280;62766;62.622;17.912;2023-06-19T03:12:01;101505.50;;;17.19;58.67
44351;BME280;62766;62.622;17.912;2023-06-19T03:14:30;101505.43;;;17.09;58.95
44351;BME280;62766;62.622;17.912;2023-06-19T03:17:00;101504.57;;;17.26;59.49
44351;BME280;62766;62.622;17.912;2023-06-19T03:19:30;101500.81;;;17.23;59.06
44351;BME280;62766;62.622;17.912;2023-06-19T03:21:59;101496.58;;;17.36;58.84
44351;BME280;62766;62.622;17.912;2023-06-19T03:24:27;101499.55;;;17.40;58.68
44351;BME280;62766;62.622;17.912;2023-06-19T03:26:57;101496.35;;;17.58;59.04
44351;BME280;62766;62.622;17.912;2023-06-19T03:29:25;101497.31;;;17.71;58.55
44351;BME280;62766;62.622;17.912;2023-06-19T03:31:54;101494.00;;;17.84;58.38
44351;BME280;62766;62.622;17.912;2023-06-19T03:34:22;101491.49;;;17.85;57.45
44351;BME280;62766;62.622;17.912;2023-06-19T03:36:50;101486.99;;;17.99;57.54
44351;BME280;62766;62.622;17.912;2023-06-19T03:39:19;101487.74;;;18.21;56.96
44351;BME280;62766;62.622;17.912;2023-06-19T03:41:47;101488.39;;;18.27;56.32
44351;BME280;62766;62.622;17.912;2023-06-19T03:44:16;101490.90;;;18.23;55.94
44351;BME280;62766;62.622;17.912;2023-06-19T03:46:46;101491.24;;;18.34;55.21
44351;BME280;62766;62.622;17.912;2023-06-19T03:49:14;101490.41;;;18.50;54.68
44351;BME280;62766;62.622;17.912;2023-06-19T03:51:43;101489.50;;;18.60;54.51
44351;BME280;62766;62.622;17.912;2023-06-19T03:54:11;101486.35;;;18.65;54.34
44351;BME280;62766;62.622;17.912;2023-06-19T03:56:39;101487.53;;;18.80;53.94
44351;BME280;62766;62.622;17.912;2023-06-19T03:59:07;101482.79;;;18.89;53.79
44351;BME280;62766;62.622;17.912;2023-06-19T04:03:31;101477.60;;;18.90;53.63
44351;BME280;62766;62.622;17.912;2023-06-19T04:05:59;101479.79;;;19.03;53.83
44351;BME280;62766;62.622;17.912;2023-06-19T04:08:27;101470.69;;;19.13;52.88
44351;BME280;62766;62.622;17.912;2023-06-19T04:10:56;101472.48;;;19.28;52.86
44351;BME280;62766;62.622;17.912;2023-06-19T04:13:25;101469.12;;;19.38;52.71
44351;BME280;62766;62.622;17.912;2023-06-19T04:15:54;101469.89;;;19.64;52.44
44351;BME280;62766;62.622;17.912;2023-06-19T04:18:23;101469.65;;;19.56;52.07
44351;BME280;62766;62.622;17.912;2023-06-19T04:20:51;101468.78;;;19.62;51.95
44351;BME280;62766;62.622;17.912;2023-06-19T04:23:21;101472.93;;;19.63;52.29
44351;BME280;62766;62.622;17.912;2023-06-19T04:25:48;101471.88;;;19.65;52.45
44351;BME280;62766;62.622;17.912;2023-06-19T04:28:17;101474.83;;;19.86;52.38
44351;BME280;62766;62.622;17.912;2023-06-19T04:30:46;101473.45;;;19.92;52.55
44351;BME280;62766;62.622;17.912;2023-06-19T04:33:14;101475.08;;;20.03;52.39
44351;BME280;62766;62.622;17.912;2023-06-19T04:35:44;101475.75;;;20.01;52.33
44351;BME280;62766;62.622;17.912;2023-06-19T04:38:12;101474.22;;;20.14;52.03
44351;BME280;62766;62.622;17.912;2023-06-19T04:40:42;101478.44;;;20.18;52.30
44351;BME280;62766;62.622;17.912;2023-06-19T04:43:12;101478.16;;;20.14;51.93
44351;BME280;62766;62.622;17.912;2023-06-19T04:45:40;101476.77;;;20.18;51.39
44351;BME280;62766;62.622;17.912;2023-06-19T04:48:08;101477.43;;;20.24;51.50
44351;BME280;62766;62.622;17.912;2023-06-19T04:50:37;101475.37;;;20.21;51.24
44351;BME280;62766;62.622;17.912;2023-06-19T04:53:05;101476.97;;;20.33;51.16
44351;BME280;62766;62.622;17.912;2023-06-19T04:55:34;101480.04;;;20.45;50.91
44351;BME280;62766;62.622;17.912;2023-06-19T04:58:02;101480.38;;;20.49;50.80
44351;BME280;62766;62.622;17.912;2023-06-19T05:00:31;101481.84;;;20.56;50.89
44351;BME280;62766;62.622;17.912;2023-06-19T05:03:00;101483.75;;;20.79;50.60
44351;BME280;62766;62.622;17.912;2023-06-19T05:05:28;101478.58;;;20.70;49.67
44351;BME280;62766;62.622;17.912;2023-06-19T05:07:59;101480.48;;;20.95;49.60
44351;BME280;62766;62.622;17.912;2023-06-19T05:10:28;101479.23;;;21.00;49.51
44351;BME280;62766;62.622;17.912;2023-06-19T05:12:57;101483.97;;;21.22;49.84
44351;BME280;62766;62.622;17.912;2023-06-19T05:15:26;101489.47;;;21.22;49.23
44351;BME280;62766;62.622;17.912;2023-06-19T05:17:54;101491.35;;;21.30;49.51
44351;BME280;62766;62.622;17.912;2023-06-19T05:20:24;101489.34;;;21.44;48.71
44351;BME280;62766;62.622;17.912;2023-06-19T05:22:52;101487.58;;;21.26;47.72
44351;BME280;62766;62.622;17.912;2023-06-19T05:25:21;101490.82;;;21.47;48.03
44351;BME280;62766;62.622;17.912;2023-06-19T05:27:49;101490.15;;;21.50;47.83
44351;BME280;62766;62.622;17.912;2023-06-19T05:30:17;101494.24;;;21.48;46.69
44351;BME280;62766;62.622;17.912;2023-06-19T05:32:45;101493.92;;;21.55;46.40
44351;BME280;62766;62.622;17.912;2023-06-19T05:35:14;101492.82;;;21.69;46.29
44351;BME280;62766;62.622;17.912;2023-06-19T05:37:45;101494.08;;;21.93;46.35
44351;BME280;62766;62.622;17.912;2023-06-19T05:40:13;101494.65;;;21.87;46.40
44351;BME280;62766;62.622;17.912;2023-06-19T05:42:42;101497.62;;;22.12;45.36
44351;BME280;62766;62.622;17.912;2023-06-19T05:45:11;101499.76;;;22.13;45.59
44351;BME280;62766;62.622;17.912;2023-06-19T05:47:40;101496.80;;;22.33;45.17
44351;BME280;62766;62.622;17.912;2023-06-19T05:50:09;101497.00;;;22.23;44.83
44351;BME280;62766;62.622;17.912;2023-06-19T05:52:37;101496.43;;;22.33;42.63
44351;BME280;62766;62.622;17.912;2023-06-19T05:55:06;101497.32;;;22.35;42.70
44351;BME280;62766;62.622;17.912;2023-06-19T05:57:34;101500.13;;;22.41;42.25
44351;BME280;62766;62.622;17.912;2023-06-19T06:00:03;101502.91;;;22.28;42.01
44351;BME280;62766;62.622;17.912;2023-06-19T06:02:31;101507.80;;;22.48;41.42
44351;BME280;62766;62.622;17.912;2023-06-19T06:05:00;101509.49;;;22.48;41.46
44351;BME280;62766;62.622;17.912;2023-06-19T06:07:28;101511.21;;;22.52;40.32
44351;BME280;62766;62.622;17.912;2023-06-19T06:09:57;101514.92;;;22.54;39.96
44351;BME280;62766;62.622;17.912;2023-06-19T06:12:25;101515.35;;;22.67;39.31
44351;BME280;62766;62.622;17.912;2023-06-19T06:14:53;101515.44;;;22.52;39.50
44351;BME280;62766;62.622;17.912;2023-06-19T06:17:23;101520.82;;;22.47;39.36
44351;BME280;62766;62.622;17.912;2023-06-19T06:19:51;101521.69;;;22.61;38.98
44351;BME280;62766;62.622;17.912;2023-06-19T06:22:19;101523.89;;;22.55;38.95
44351;BME280;62766;62.622;17.912;2023-06-19T06:24:48;101520.43;;;22.51;39.26
44351;BME280;62766;62.622;17.912;2023-06-19T06:27:16;101521.41;;;22.53;39.57
44351;BME280;62766;62.622;17.912;2023-06-19T06:29:44;101520.84;;;22.50;39.56
44351;BME280;62766;62.622;17.912;2023-06-19T06:32:12;101520.64;;;22.46;39.77
44351;BME280;62766;62.622;17.912;2023-06-19T06:34:40;101520.53;;;22.54;39.31
44351;BME280;62766;62.622;17.912;2023-06-19T06:37:08;101523.60;;;22.69;39.59
44351;BME280;62766;62.622;17.912;2023-06-19T06:39:36;101525.47;;;22.52;39.46
44351;BME280;62766;62.622;17.912;2023-06-19T06:42:05;101528.57;;;22.72;39.65
44351;BME280;62766;62.622;17.912;2023-06-19T06:44:33;101530.69;;;22.65;38.47
44351;BME280;62766;62.622;17.912;2023-06-19T06:47:02;101530.06;;;22.60;39.19
44351;BME280;62766;62.622;17.912;2023-06-19T06:49:30;101530.04;;;22.64;38.97
44351;BME280;62766;62.622;17.912;2023-06-19T06:51:59;101532.17;;;22.66;38.95
44351;BME280;62766;62.622;17.912;2023-06-19T06:54:27;101531.25;;;22.63;39.47
44351;BME280;62766;62.622;17.912;2023-06-19T06:56:56;101533.73;;;22.61;39.60
44351;BME280;62766;62.622;17.912;2023-06-19T06:59:25;101533.88;;;22.53;39.74
44351;BME280;62766;62.622;17.912;2023-06-19T07:01:54;101534.71;;;22.67;39.59
44351;BME280;62766;62.622;17.912;2023-06-19T07:04:22;101539.98;;;22.70;39.70
44351;BME280;62766;62.622;17.912;2023-06-19T07:06:51;101538.57;;;22.64;40.00
44351;BME280;62766;62.622;17.912;2023-06-19T07:09:19;101541.95;;;22.81;39.41
44351;BME280;62766;62.622;17.912;2023-06-19T07:11:47;101542.32;;;22.92;39.58
44351;BME280;62766;62.622;17.912;2023-06-19T07:14:15;101536.72;;;23.06;39.44
44351;BME280;62766;62.622;17.912;2023-06-19T07:16:44;101535.17;;;23.01;39.53
44351;BME280;62766;62.622;17.912;2023-06-19T07:19:12;101534.18;;;23.03;39.74
44351;BME280;62766;62.622;17.912;2023-06-19T07:21:41;101535.83;;;23.17;39.44
44351;BME280;62766;62.622;17.912;2023-06-19T07:24:10;101537.19;;;23.21;39.55
44351;BME280;62766;62.622;17.912;2023-06-19T07:26:39;101540.34;;;23.19;39.17
44351;BME280;62766;62.622;17.912;2023-06-19T07:29:07;101535.51;;;23.30;38.92
44351;BME280;62766;62.622;17.912;2023-06-19T07:31:35;101536.65;;;23.38;39.32
44351;BME280;62766;62.622;17.912;2023-06-19T07:34:04;101531.54;;;23.60;39.41
44351;BME280;62766;62.622;17.912;2023-06-19T07:36:32;101521.91;;;23.79;38.90
44351;BME280;62766;62.622;17.912;2023-06-19T07:39:01;101519.98;;;24.07;38.68
44351;BME280;62766;62.622;17.912;2023-06-19T07:41:31;101519.79;;;24.34;38.08
44351;BME280;62766;62.622;17.912;2023-06-19T07:43:59;101517.93;;;24.65;37.39
44351;BME280;62766;62.622;17.912;2023-06-19T07:46:27;101518.98;;;24.87;36.79
44351;BME280;62766;62.622;17.912;2023-06-19T07:48:56;101515.70;;;24.98;36.88
44351;BME280;62766;62.622;17.912;2023-06-19T07:51:25;101516.28;;;25.25;36.02
44351;BME280;62766;62.622;17.912;2023-06-19T07:53:53;101513.55;;;25.42;36.12
44351;BME280;62766;62.622;17.912;2023-06-19T07:56:22;101513.26;;;25.27;36.31
44351;BME280;62766;62.622;17.912;2023-06-19T07:58:51;101509.58;;;25.39;35.65
44351;BME280;62766;62.622;17.912;2023-06-19T08:01:20;101511.72;;;25.65;35.39
44351;BME280;62766;62.622;17.912;2023-06-19T08:03:49;101510.54;;;25.77;35.12
44351;BME280;62766;62.622;17.912;2023-06-19T08:06:18;101508.39;;;25.83;35.68
44351;BME280;62766;62.622;17.912;2023-06-19T08:08:46;101508.66;;;25.89;35.56
44351;BME280;62766;62.622;17.912;2023-06-19T08:11:15;101504.03;;;26.04;34.93
44351;BME280;62766;62.622;17.912;2023-06-19T08:13:44;101504.10;;;26.01;34.65
44351;BME280;62766;62.622;17.912;2023-06-19T08:16:13;101506.37;;;26.29;34.90
44351;BME280;62766;62.622;17.912;2023-06-19T08:18:44;101506.40;;;26.30;34.90
44351;BME280;62766;62.622;17.912;2023-06-19T08:21:13;101508.77;;;26.48;34.62
44351;BME280;62766;62.622;17.912;2023-06-19T08:23:41;101506.64;;;26.32;34.42
44351;BME280;62766;62.622;17.912;2023-06-19T08:26:11;101509.38;;;26.41;34.49
44351;BME280;62766;62.622;17.912;2023-06-19T08:28:40;101511.93;;;26.32;34.38
44351;BME280;62766;62.622;17.912;2023-06-19T08:31:09;101512.49;;;26.31;34.05
44351;BME280;62766;62.622;17.912;2023-06-19T08:33:37;101511.40;;;26.14;34.57
44351;BME280;62766;62.622;17.912;2023-06-19T08:36:06;101516.68;;;26.24;34.26
44351;BME280;62766;62.622;17.912;2023-06-19T08:38:34;101516.35;;;26.33;34.37
44351;BME280;62766;62.622;17.912;2023-06-19T08:41:03;101514.03;;;26.27;35.08
44351;BME280;62766;62.622;17.912;2023-06-19T08:43:32;101514.81;;;26.50;35.12
44351;BME280;62766;62.622;17.912;2023-06-19T08:46:10;101509.99;;;26.41;34.66
44351;BME280;62766;62.622;17.912;2023-06-19T08:48:40;101506.51;;;26.35;36.17
44351;BME280;62766;62.622;17.912;2023-06-19T08:51:09;101506.13;;;26.31;35.21
44351;BME280;62766;62.622;17.912;2023-06-19T08:53:45;101504.63;;;26.31;35.39
44351;BME280;62766;62.622;17.912;2023-06-19T08:56:14;101503.58;;;26.27;34.85
44351;BME280;62766;62.622;17.912;2023-06-19T08:58:43;101503.19;;;26.37;35.00
44351;BME280;62766;62.622;17.912;2023-06-19T09:01:16;101505.47;;;26.46;35.16
44351;BME280;62766;62.622;17.912;2023-06-19T09:03:46;101504.26;;;26.47;35.49
44351;BME280;62766;62.622;17.912;2023-06-19T09:06:15;101504.92;;;26.60;35.61
44351;BME280;62766;62.622;17.912;2023-06-19T09:08:44;101505.27;;;26.66;35.24
44351;BME280;62766;62.622;17.912;2023-06-19T09:11:18;101507.74;;;26.68;35.18
44351;BME280;62766;62.622;17.912;2023-06-19T09:13:56;101507.68;;;26.73;34.90
44351;BME280;62766;62.622;17.912;2023-06-19T09:16:36;101506.04;;;26.82;35.46
44351;BME280;62766;62.622;17.912;2023-06-19T09:19:05;101502.92;;;26.85;35.04
44351;BME280;62766;62.622;17.912;2023-06-19T09:21:36;101500.88;;;27.04;34.80
44351;BME280;62766;62.622;17.912;2023-06-19T09:24:06;101500.67;;;27.00;34.34
44351;BME280;62766;62.622;17.912;2023-06-19T09:26:35;101501.24;;;27.10;34.97
44351;BME280;62766;62.622;17.912;2023-06-19T09:29:12;101501.08;;;27.13;34.04
44351;BME280;62766;62.622;17.912;2023-06-19T09:31:40;101498.34;;;27.18;34.99
44351;BME280;62766;62.622;17.912;2023-06-19T09:34:09;101496.94;;;27.11;35.04
44351;BME280;62766;62.622;17.912;2023-06-19T09:36:38;101496.74;;;27.33;34.42
44351;BME280;62766;62.622;17.912;2023-06-19T09:39:06;101493.03;;;27.60;34.24
44351;BME280;62766;62.622;17.912;2023-06-19T09:41:35;101489.79;;;27.58;33.87
44351;BME280;62766;62.622;17.912;2023-06-19T09:44:05;101483.94;;;27.83;33.55
44351;BME280;62766;62.622;17.912;2023-06-19T09:46:37;101482.49;;;27.98;34.42
44351;BME280;62766;62.622;17.912;2023-06-19T09:49:06;101478.56;;;27.88;34.04
44351;BME280;62766;62.622;17.912;2023-06-19T09:51:37;101480.04;;;27.81;34.00
44351;BME280;62766;62.622;17.912;2023-06-19T09:54:09;101478.13;;;27.83;34.72
44351;BME280;62766;62.622;17.912;2023-06-19T09:56:38;101477.35;;;27.81;34.29
44351;BME280;62766;62.622;17.912;2023-06-19T09:59:07;101481.12;;;27.70;33.81
44351;BME280;62766;62.622;17.912;2023-06-19T10:03:39;101483.51;;;27.64;35.70
44351;BME280;62766;62.622;17.912;2023-06-19T10:06:13;101479.27;;;27.87;35.21
44351;BME280;62766;62.622;17.912;2023-06-19T10:08:43;101477.63;;;28.11;34.57
44351;BME280;62766;62.622;17.912;2023-06-19T10:11:13;101479.20;;;28.06;34.33
44351;BME280;62766;62.622;17.912;2023-06-19T10:13:42;101475.86;;;28.22;34.12
44351;BME280;62766;62.622;17.912;2023-06-19T10:16:19;101477.58;;;28.02;33.62
44351;BME280;62766;62.622;17.912;2023-06-19T10:18:48;101478.73;;;28.02;34.28
44351;BME280;62766;62.622;17.912;2023-06-19T10:21:19;101481.04;;;27.82;34.45
44351;BME280;62766;62.622;17.912;2023-06-19T10:23:56;101482.51;;;27.88;34.11
44351;BME280;62766;62.622;17.912;2023-06-19T10:26:30;101481.09;;;27.77;33.83
44351;BME280;62766;62.622;17.912;2023-06-19T10:28:59;101483.13;;;27.62;33.83
44351;BME280;62766;62.622;17.912;2023-06-19T10:31:28;101479.34;;;27.34;34.47
44351;BME280;62766;62.622;17.912;2023-06-19T10:33:58;101476.83;;;27.54;34.42
44351;BME280;62766;62.622;17.912;2023-06-19T10:36:26;101475.41;;;27.66;33.82
44351;BME280;62766;62.622;17.912;2023-06-19T10:38:54;101475.96;;;27.55;33.30
44351;BME280;62766;62.622;17.912;2023-06-19T10:41:24;101482.06;;;27.50;34.02
44351;BME280;62766;62.622;17.912;2023-06-19T10:43:53;101484.46;;;27.29;33.78
44351;BME280;62766;62.622;17.912;2023-06-19T10:46:23;101484.12;;;27.18;34.22
44351;BME280;62766;62.622;17.912;2023-06-19T10:48:51;101484.77;;;27.07;34.16
44351;BME280;62766;62.622;17.912;2023-06-19T10:51:20;101483.42;;;27.10;34.38
44351;BME280;62766;62.622;17.912;2023-06-19T10:53:49;101484.12;;;27.35;34.41
44351;BME280;62766;62.622;17.912;2023-06-19T10:56:20;101486.84;;;27.44;34.35
44351;BME280;62766;62.622;17.912;2023-06-19T10:58:56;101486.82;;;27.32;34.34
44351;BME280;62766;62.622;17.912;2023-06-19T11:01:32;101484.13;;;27.69;34.18
44351;BME280;62766;62.622;17.912;2023-06-19T11:04:03;101483.48;;;27.87;34.01
44351;BME280;62766;62.622;17.912;2023-06-19T11:06:33;101481.55;;;27.88;33.58
44351;BME280;62766;62.622;17.912;2023-06-19T11:09:01;101479.93;;;28.02;33.53
44351;BME280;62766;62.622;17.912;2023-06-19T11:11:39;101477.57;;;27.92;33.09
44351;BME280;62766;62.622;17.912;2023-06-19T11:14:09;101474.91;;;28.29;32.69
44351;BME280;62766;62.622;17.912;2023-06-19T11:16:39;101470.18;;;28.43;32.19
44351;BME280;62766;62.622;17.912;2023-06-19T11:19:14;101471.10;;;28.25;31.46
44351;BME280;62766;62.622;17.912;2023-06-19T11:21:46;101474.82;;;28.06;31.51
44351;BME280;62766;62.622;17.912;2023-06-19T11:24:15;101475.65;;;27.82;32.90
44351;BME280;62766;62.622;17.912;2023-06-19T11:26:44;101477.93;;;27.70;33.20
44351;BME280;62766;62.622;17.912;2023-06-19T11:29:15;101473.29;;;27.79;31.72
44351;BME280;62766;62.622;17.912;2023-06-19T11:31:44;101474.87;;;27.69;32.05
44351;BME280;62766;62.622;17.912;2023-06-19T11:34:13;101470.58;;;27.81;30.66
44351;BME280;62766;62.622;17.912;2023-06-19T11:36:42;101471.03;;;27.70;30.52
44351;BME280;62766;62.622;17.912;2023-06-19T11:39:13;101472.85;;;27.57;30.97
44351;BME280;62766;62.622;17.912;2023-06-19T11:41:44;101474.29;;;27.56;31.52
44351;BME280;62766;62.622;17.912;2023-06-19T11:44:15;101470.79;;;27.68;31.67
44351;BME280;62766;62.622;17.912;2023-06-19T11:46:43;101467.18;;;27.76;31.44
44351;BME280;62766;62.622;17.912;2023-06-19T11:49:15;101467.16;;;27.88;31.56
44351;BME280;62766;62.622;17.912;2023-06-19T11:51:44;101461.21;;;27.74;31.24
44351;BME280;62766;62.622;17.912;2023-06-19T11:54:14;101462.74;;;27.87;31.21
44351;BME280;62766;62.622;17.912;2023-06-19T11:56:43;101459.32;;;28.09;32.48
44351;BME280;62766;62.622;17.912;2023-06-19T11:59:11;101457.50;;;28.46;32.46
44351;BME280;62766;62.622;17.912;2023-06-19T12:01:41;101450.62;;;28.52;31.47
44351;BME280;62766;62.622;17.912;2023-06-19T12:04:10;101451.65;;;28.56;31.80
44351;BME280;62766;62.622;17.912;2023-06-19T12:06:38;101449.32;;;28.67;31.63
44351;BME280;62766;62.622;17.912;2023-06-19T12:09:06;101449.93;;;28.81;30.72
44351;BME280;62766;62.622;17.912;2023-06-19T12:11:35;101451.14;;;29.02;31.07
44351;BME280;62766;62.622;17.912;2023-06-19T12:14:04;101454.43;;;29.08;30.79
44351;BME280;62766;62.622;17.912;2023-06-19T12:16:33;101452.38;;;28.84;30.32
44351;BME280;62766;62.622;17.912;2023-06-19T12:19:02;101452.92;;;28.57;30.61
44351;BME280;62766;62.622;17.912;2023-06-19T12:21:31;101453.56;;;28.51;30.68
44351;BME280;62766;62.622;17.912;2023-06-19T12:23:59;101455.11;;;28.44;31.13
44351;BME280;62766;62.622;17.912;2023-06-19T12:26:27;101452.05;;;28.25;31.28
44351;BME280;62766;62.622;17.912;2023-06-19T12:28:55;101453.81;;;28.01;31.24
44351;BME280;62766;62.622;17.912;2023-06-19T12:31:23;101449.04;;;27.98;31.81
44351;BME280;62766;62.622;17.912;2023-06-19T12:33:51;101449.05;;;27.88;31.89
44351;BME280;62766;62.622;17.912;2023-06-19T12:36:19;101446.46;;;27.83;31.94
44351;BME280;62766;62.622;17.912;2023-06-19T12:38:47;101444.89;;;27.77;32.07
44351;BME280;62766;62.622;17.912;2023-06-19T12:41:16;101440.39;;;27.93;31.93
44351;BME280;62766;62.622;17.912;2023-06-19T12:43:44;101436.34;;;27.72;31.45
44351;BME280;62766;62.622;17.912;2023-06-19T12:46:14;101434.36;;;27.51;32.10
44351;BME280;62766;62.622;17.912;2023-06-19T12:48:43;101438.93;;;27.13;34.25
44351;BME280;62766;62.622;17.912;2023-06-19T12:51:12;101440.75;;;26.97;35.29
44351;BME280;62766;62.622;17.912;2023-06-19T12:53:41;101437.28;;;27.01;35.16